Time;durP1;ratioP1;P1;durP2;ratioP2;P2;SDS_P1;SDS_P2;PMS_P1;PMS_P2;Temp;Humidity;BMP_temperature;BMP_pressure;BME280_temperature;BME280_humidity;BME280_pressure;Samples;Min_cycle;Max_cycle;Signal;HPM_P1;HPM_P2
2022/10/13 00:00:06;;;;;;;16.27;7.10;;;10.80;99.90;;;;;;5108439;28;20204;-69
2022/10/13 00:02:33;;;;;;;12.47;6.87;;;10.80;99.90;;;;;;5107876;28;20630;-69
2022/10/13 00:05:01;;;;;;;15.43;6.70;;;10.80;99.90;;;;;;5109113;28;20519;-69
2022/10/13 00:07:28;;;;;;;14.40;7.03;;;10.80;99.90;;;;;;5107262;28;20208;-68
2022/10/13 00:09:55;;;;;;;12.43;6.57;;;10.80;99.90;;;;;;5111365;28;20207;-69
2022/10/13 00:12:21;;;;;;;15.33;7.43;;;10.80;99.90;;;;;;5111565;28;20327;-70
2022/10/13 00:14:48;;;;;;;12.83;7.47;;;10.70;99.90;;;;;;5111926;28;20211;-70
2022/10/13 00:17:15;;;;;;;20.00;7.97;;;10.70;99.90;;;;;;5112133;28;20200;-69
2022/10/13 00:19:42;;;;;;;18.27;8.87;;;10.70;99.90;;;;;;5106857;28;20565;-69
2022/10/13 00:22:10;;;;;;;14.97;7.60;;;10.70;99.90;;;;;;5112344;28;20224;-70
2022/10/13 00:24:37;;;;;;;13.10;7.60;;;10.70;99.90;;;;;;5111551;28;20208;-68
2022/10/13 00:27:04;;;;;;;11.63;7.63;;;10.70;99.90;;;;;;5110936;28;20239;-68
2022/10/13 00:29:30;;;;;;;13.93;6.77;;;10.60;99.90;;;;;;5111863;28;20200;-68
2022/10/13 00:31:57;;;;;;;12.53;7.13;;;10.60;99.90;;;;;;5110798;28;20241;-69
2022/10/13 00:34:24;;;;;;;12.40;7.77;;;10.60;99.90;;;;;;5111756;28;20208;-70
2022/10/13 00:36:50;;;;;;;12.93;6.70;;;10.60;99.90;;;;;;5110465;28;20227;-69
2022/10/13 00:39:18;;;;;;;15.53;7.83;;;10.60;99.90;;;;;;5111863;28;20204;-70
2022/10/13 00:41:45;;;;;;;10.83;6.73;;;10.50;99.90;;;;;;5110874;28;20208;-69
2022/10/13 00:44:45;;;;;;;16.57;7.77;;;10.50;99.90;;;;;;5111449;28;20212;-69
2022/10/13 00:47:12;;;;;;;13.83;7.33;;;10.50;99.90;;;;;;5110389;28;20238;-69
2022/10/13 00:49:38;;;;;;;12.90;7.17;;;10.40;99.90;;;;;;5112320;28;20216;-68
2022/10/13 00:52:05;;;;;;;11.97;7.23;;;10.40;99.90;;;;;;5111420;28;20219;-69
2022/10/13 00:54:34;;;;;;;13.60;7.27;;;10.40;99.90;;;;;;5111758;28;20716;-68
2022/10/13 00:57:02;;;;;;;12.97;7.07;;;10.40;99.90;;;;;;5110768;28;20203;-69
2022/10/13 00:59:30;;;;;;;13.53;7.27;;;10.40;99.90;;;;;;5108989;28;20522;-68
2022/10/13 01:01:59;;;;;;;13.57;7.20;;;10.30;99.90;;;;;;5111186;28;20203;-69
2022/10/13 01:04:32;;;;;;;13.00;7.07;;;10.30;99.90;;;;;;5111762;28;20207;-68
2022/10/13 01:06:59;;;;;;;12.23;6.57;;;10.30;99.90;;;;;;5111186;28;20203;-68
2022/10/13 01:09:33;;;;;;;13.27;7.50;;;10.30;99.90;;;;;;5111138;28;20200;-68
2022/10/13 01:12:12;;;;;;;11.67;7.23;;;10.30;99.90;;;;;;5109053;28;20247;-69
2022/10/13 01:14:51;;;;;;;11.73;7.33;;;10.30;99.90;;;;;;5110071;28;20602;-68
2022/10/13 01:17:25;;;;;;;16.27;8.33;;;10.20;99.90;;;;;;5109801;28;20208;-68
2022/10/13 01:20:19;;;;;;;18.70;8.03;;;10.30;99.90;;;;;;5111706;28;20208;-69
2022/10/13 01:23:00;;;;;;;16.47;7.13;;;10.20;99.90;;;;;;5109728;28;20223;-67
2022/10/13 01:25:44;;;;;;;16.37;8.23;;;10.20;99.90;;;;;;5109852;28;20240;-68
2022/10/13 01:28:36;;;;;;;15.67;7.70;;;10.20;99.90;;;;;;5101693;28;20207;-67
2022/10/13 01:31:11;;;;;;;21.80;8.90;;;10.20;99.90;;;;;;5107467;28;20207;-68
2022/10/13 01:33:43;;;;;;;15.93;8.57;;;10.20;99.90;;;;;;5110136;28;20203;-68
2022/10/13 01:36:17;;;;;;;17.07;9.10;;;10.10;99.90;;;;;;5111142;28;20207;-68
2022/10/13 01:38:51;;;;;;;13.00;8.80;;;10.10;99.90;;;;;;5110484;28;20643;-67
2022/10/13 01:41:25;;;;;;;16.70;9.30;;;10.10;99.90;;;;;;5111194;28;20215;-68
2022/10/13 01:43:57;;;;;;;18.00;9.83;;;10.10;99.90;;;;;;5109919;28;20200;-69
2022/10/13 01:46:29;;;;;;;18.20;9.70;;;10.10;99.90;;;;;;5110787;28;20192;-68
2022/10/13 01:48:59;;;;;;;19.00;9.93;;;10.10;99.90;;;;;;5107175;28;20211;-68
2022/10/13 01:51:28;;;;;;;14.33;9.57;;;10.10;99.90;;;;;;5107885;28;20293;-67
2022/10/13 01:53:55;;;;;;;17.93;10.17;;;10.00;99.90;;;;;;5111614;28;20224;-68
2022/10/13 01:56:22;;;;;;;18.50;10.40;;;10.00;99.90;;;;;;5109609;28;20218;-69
2022/10/13 01:58:50;;;;;;;19.67;10.70;;;10.00;99.90;;;;;;5110251;28;20561;-70
2022/10/13 02:01:34;;;;;;;25.17;11.03;;;10.00;99.90;;;;;;5096152;28;20573;-69
2022/10/13 02:04:14;;;;;;;17.27;10.20;;;10.00;99.90;;;;;;5109124;28;20204;-69
2022/10/13 02:06:47;;;;;;;18.43;10.43;;;10.00;99.90;;;;;;5110490;28;20571;-70
2022/10/13 02:09:22;;;;;;;24.20;10.83;;;10.00;99.90;;;;;;5109792;28;20214;-69
2022/10/13 02:11:56;;;;;;;17.23;10.57;;;10.00;99.90;;;;;;5109453;28;20199;-70
2022/10/13 02:14:26;;;;;;;16.50;10.40;;;10.00;99.90;;;;;;5109759;28;20679;-69
2022/10/13 02:16:57;;;;;;;19.90;10.77;;;9.90;99.90;;;;;;5110621;28;20199;-69
2022/10/13 02:19:24;;;;;;;18.67;11.03;;;10.00;99.90;;;;;;5108550;28;20192;-69
2022/10/13 02:21:52;;;;;;;22.83;11.57;;;10.00;99.90;;;;;;5108306;28;20329;-68
2022/10/13 02:24:19;;;;;;;18.33;11.20;;;9.90;99.90;;;;;;5110242;28;20215;-69
2022/10/13 02:26:46;;;;;;;19.10;10.80;;;10.00;99.90;;;;;;5108252;28;20270;-67
2022/10/13 02:29:16;;;;;;;22.97;11.30;;;10.00;99.90;;;;;;5109660;28;20648;-68
2022/10/13 02:31:44;;;;;;;20.27;11.73;;;10.00;99.90;;;;;;5107716;28;20208;-68
2022/10/13 02:34:14;;;;;;;19.33;11.07;;;10.00;99.90;;;;;;5108444;28;20791;-68
2022/10/13 02:36:41;;;;;;;18.97;10.70;;;10.00;99.90;;;;;;5109625;28;20752;-68
2022/10/13 02:39:10;;;;;;;17.87;10.97;;;9.90;99.90;;;;;;5108090;28;20199;-68
2022/10/13 02:41:36;;;;;;;18.33;10.83;;;10.00;99.90;;;;;;5109203;28;20211;-69
2022/10/13 02:44:04;;;;;;;24.90;11.50;;;10.00;99.90;;;;;;5110057;28;20313;-68
2022/10/13 02:46:31;;;;;;;17.57;10.90;;;10.00;99.90;;;;;;5108527;28;20663;-68
2022/10/13 02:48:58;;;;;;;20.83;10.47;;;10.00;99.90;;;;;;5107776;28;20211;-68
2022/10/13 02:51:26;;;;;;;20.30;10.93;;;10.00;99.90;;;;;;5108103;28;20208;-69
2022/10/13 02:53:52;;;;;;;17.03;9.47;;;9.90;99.90;;;;;;5108301;28;20262;-68
2022/10/13 02:56:19;;;;;;;20.53;9.87;;;9.90;99.90;;;;;;5107585;28;20584;-68
2022/10/13 02:58:46;;;;;;;20.40;10.37;;;9.90;99.90;;;;;;5109419;28;20231;-68
2022/10/13 03:01:14;;;;;;;17.23;10.37;;;9.90;99.90;;;;;;5108203;28;20208;-69
2022/10/13 03:03:41;;;;;;;19.17;10.20;;;9.90;99.90;;;;;;5095308;28;20243;-68
2022/10/13 03:06:08;;;;;;;15.97;10.60;;;10.00;99.90;;;;;;5109123;28;20226;-68
2022/10/13 03:08:37;;;;;;;17.83;9.27;;;9.90;99.90;;;;;;5109627;28;20204;-68
2022/10/13 03:11:04;;;;;;;23.33;9.23;;;9.90;99.90;;;;;;5099491;28;20290;-68
2022/10/13 03:13:31;;;;;;;18.23;10.37;;;9.90;99.90;;;;;;5108621;28;20234;-69
2022/10/13 03:15:58;;;;;;;15.63;8.93;;;9.90;99.90;;;;;;5107113;28;20199;-68
2022/10/13 03:18:24;;;;;;;14.80;9.33;;;9.90;99.90;;;;;;5108099;28;20200;-69
2022/10/13 03:20:58;;;;;;;16.23;9.37;;;9.90;99.90;;;;;;5109005;28;20671;-68
2022/10/13 03:23:25;;;;;;;19.23;10.33;;;10.00;99.90;;;;;;5110080;28;20680;-68
2022/10/13 03:25:54;;;;;;;14.67;8.57;;;9.90;99.90;;;;;;5106235;28;20673;-67
2022/10/13 03:28:21;;;;;;;14.83;8.90;;;9.90;99.90;;;;;;5109335;28;20208;-69
2022/10/13 03:30:48;;;;;;;14.70;9.57;;;9.90;99.90;;;;;;5108738;28;20234;-68
2022/10/13 03:33:15;;;;;;;14.90;9.17;;;9.90;99.90;;;;;;5109804;28;20235;-67
2022/10/13 03:35:42;;;;;;;13.60;9.00;;;9.90;99.90;;;;;;5109097;28;20202;-69
2022/10/13 03:38:09;;;;;;;16.90;9.20;;;9.90;99.90;;;;;;5110252;28;20663;-68
2022/10/13 03:40:36;;;;;;;17.50;9.67;;;9.90;99.90;;;;;;5108762;28;20204;-68
2022/10/13 03:43:04;;;;;;;14.20;9.53;;;9.90;99.90;;;;;;5107746;28;20631;-69
2022/10/13 03:45:31;;;;;;;15.10;9.47;;;9.80;99.90;;;;;;5111814;28;20219;-69
2022/10/13 03:47:58;;;;;;;19.40;9.93;;;9.80;99.90;;;;;;5112952;28;20204;-69
2022/10/13 03:50:25;;;;;;;16.03;9.63;;;9.80;99.90;;;;;;5113474;28;20235;-68
2022/10/13 03:52:52;;;;;;;15.53;9.73;;;9.80;99.90;;;;;;5113579;28;20570;-68
2022/10/13 03:55:19;;;;;;;21.53;9.33;;;9.80;99.90;;;;;;5111698;28;20204;-68
2022/10/13 03:57:46;;;;;;;13.83;8.90;;;9.70;99.90;;;;;;5110060;28;20206;-68
2022/10/13 04:00:15;;;;;;;19.87;10.20;;;9.70;99.90;;;;;;5113649;28;20576;-69
2022/10/13 04:02:42;;;;;;;19.13;9.80;;;9.70;99.90;;;;;;5113399;28;20630;-68
2022/10/13 04:05:10;;;;;;;16.20;9.27;;;9.70;99.90;;;;;;5112056;28;20230;-68
2022/10/13 04:07:37;;;;;;;16.77;9.53;;;9.60;99.90;;;;;;5111874;28;20204;-67
2022/10/13 04:10:04;;;;;;;20.43;10.17;;;9.70;99.90;;;;;;5112124;28;20219;-68
2022/10/13 04:12:30;;;;;;;18.90;10.00;;;9.60;99.90;;;;;;5112538;28;20563;-68
2022/10/13 04:14:57;;;;;;;17.77;10.30;;;9.60;99.90;;;;;;5111707;28;20211;-68
2022/10/13 04:17:26;;;;;;;18.83;10.50;;;9.60;99.90;;;;;;5110945;28;20227;-69
2022/10/13 04:19:52;;;;;;;20.93;11.40;;;9.60;99.90;;;;;;5110707;28;20208;-68
2022/10/13 04:22:19;;;;;;;20.63;10.63;;;9.60;99.90;;;;;;5112377;28;20228;-66
2022/10/13 04:24:46;;;;;;;18.90;10.57;;;9.50;99.90;;;;;;5111974;28;20279;-66
2022/10/13 04:27:15;;;;;;;22.07;10.60;;;9.50;99.90;;;;;;5110051;28;20235;-66
2022/10/13 04:29:42;;;;;;;20.37;10.67;;;9.50;99.90;;;;;;5112294;28;20196;-65
2022/10/13 04:32:09;;;;;;;22.40;11.33;;;9.50;99.90;;;;;;5110036;28;20220;-66
2022/10/13 04:34:37;;;;;;;19.10;12.33;;;9.40;99.90;;;;;;5106442;28;20761;-66
2022/10/13 04:37:04;;;;;;;19.07;12.17;;;9.40;99.90;;;;;;5106628;28;20298;-66
2022/10/13 04:39:31;;;;;;;24.60;12.63;;;9.40;99.90;;;;;;5105183;28;20455;-65
2022/10/13 04:41:57;;;;;;;19.87;12.63;;;9.40;99.90;;;;;;5102016;27;20215;-65
2022/10/13 04:44:24;;;;;;;27.52;14.85;;;9.40;99.90;;;;;;5103157;27;20964;-64
2022/10/13 04:46:51;;;;;;;19.90;12.97;;;9.30;99.90;;;;;;5107625;28;20200;-65
2022/10/13 04:49:18;;;;;;;24.20;13.23;;;9.30;99.90;;;;;;5104245;28;20223;-65
2022/10/13 04:51:46;;;;;;;23.73;12.50;;;9.30;99.90;;;;;;5108853;28;20206;-65
2022/10/13 04:54:13;;;;;;;23.23;13.57;;;9.30;99.90;;;;;;5110921;28;20231;-65
2022/10/13 04:56:40;;;;;;;25.43;13.70;;;9.20;99.90;;;;;;5105677;28;20200;-66
2022/10/13 04:59:06;;;;;;;20.70;13.37;;;9.20;99.90;;;;;;5109296;28;20204;-66
2022/10/13 05:01:34;;;;;;;20.17;12.43;;;9.20;99.90;;;;;;5107549;28;20199;-65
2022/10/13 05:04:03;;;;;;;36.33;13.10;;;9.20;99.90;;;;;;5110008;28;20544;-68
2022/10/13 05:06:32;;;;;;;25.30;16.20;;;9.10;99.90;;;;;;5106350;28;20450;-66
2022/10/13 05:09:00;;;;;;;30.97;16.60;;;9.10;99.90;;;;;;5109906;28;20681;-66
2022/10/13 05:11:28;;;;;;;24.03;14.13;;;9.10;99.90;;;;;;5109214;28;20211;-67
2022/10/13 05:13:56;;;;;;;21.73;12.37;;;9.10;99.90;;;;;;5102594;28;20223;-66
2022/10/13 05:16:24;;;;;;;24.97;14.20;;;9.10;99.90;;;;;;5107333;28;20207;-66
2022/10/13 05:18:53;;;;;;;23.27;13.47;;;9.10;99.90;;;;;;5111522;28;20208;-67
2022/10/13 05:21:22;;;;;;;28.90;13.47;;;9.10;99.90;;;;;;5111003;28;20208;-64
2022/10/13 05:23:52;;;;;;;24.25;11.27;;;9.10;99.90;;;;;;5111163;28;20925;-65
2022/10/13 05:26:21;;;;;;;24.13;11.47;;;9.10;99.90;;;;;;5102116;28;20246;-66
2022/10/13 05:28:48;;;;;;;25.17;11.20;;;9.10;99.90;;;;;;5110548;28;20249;-66
2022/10/13 05:31:18;;;;;;;16.63;9.00;;;9.20;99.90;;;;;;5108634;28;20208;-65
2022/10/13 05:33:45;;;;;;;19.93;10.30;;;9.20;99.90;;;;;;5104513;28;20216;-66
2022/10/13 05:36:15;;;;;;;14.37;8.63;;;9.30;99.90;;;;;;5105214;28;20204;-67
2022/10/13 05:38:41;;;;;;;24.50;9.70;;;9.40;99.90;;;;;;5106801;28;20215;-67
2022/10/13 05:41:10;;;;;;;18.40;8.90;;;9.60;99.90;;;;;;5109758;28;20208;-67
2022/10/13 05:43:40;;;;;;;26.17;9.07;;;9.70;99.90;;;;;;5104891;28;20668;-66
2022/10/13 05:46:08;;;;;;;25.30;9.33;;;9.90;99.90;;;;;;5105986;28;20211;-67
2022/10/13 05:48:35;;;;;;;25.73;10.37;;;9.90;99.90;;;;;;5109952;28;20207;-66
2022/10/13 05:51:06;;;;;;;21.27;10.03;;;10.00;99.90;;;;;;5109472;28;20204;-66
2022/10/13 05:53:35;;;;;;;19.20;9.20;;;10.00;99.90;;;;;;5097192;28;20212;-66
2022/10/13 05:56:07;;;;;;;20.23;10.03;;;10.00;99.90;;;;;;5110669;28;20266;-66
2022/10/13 05:58:38;;;;;;;16.43;8.50;;;10.00;99.90;;;;;;5109695;28;20559;-66
2022/10/13 06:01:08;;;;;;;20.83;9.30;;;10.00;99.90;;;;;;5110840;28;20226;-66
2022/10/13 06:03:35;;;;;;;23.93;9.43;;;10.10;99.90;;;;;;5110522;28;20194;-66
2022/10/13 06:06:02;;;;;;;14.97;8.67;;;10.10;99.90;;;;;;5110723;28;20571;-66
2022/10/13 06:08:29;;;;;;;22.60;8.90;;;10.20;99.90;;;;;;5106327;28;20216;-66
2022/10/13 06:10:56;;;;;;;21.10;9.73;;;10.20;99.90;;;;;;5110043;28;20518;-67
2022/10/13 06:13:23;;;;;;;24.20;9.73;;;10.30;99.90;;;;;;5109925;28;20318;-66
2022/10/13 06:15:50;;;;;;;16.93;9.23;;;10.30;99.90;;;;;;5110324;28;20204;-66
2022/10/13 06:18:18;;;;;;;18.70;9.37;;;10.30;99.90;;;;;;5106404;28;20668;-67
2022/10/13 06:20:44;;;;;;;22.03;9.53;;;10.40;99.90;;;;;;5107289;28;20196;-65
2022/10/13 06:23:11;;;;;;;19.70;9.57;;;10.50;99.90;;;;;;5108438;28;20246;-66
2022/10/13 06:25:38;;;;;;;16.53;8.37;;;10.60;99.90;;;;;;5109383;28;20228;-65
2022/10/13 06:28:05;;;;;;;19.10;9.73;;;10.60;99.90;;;;;;5106144;28;20208;-65
2022/10/13 06:30:31;;;;;;;17.70;9.43;;;10.70;99.90;;;;;;5102427;28;20208;-65
2022/10/13 06:32:58;;;;;;;17.93;9.80;;;10.70;99.90;;;;;;5108563;28;20200;-65
2022/10/13 06:35:26;;;;;;;21.60;10.00;;;10.70;99.90;;;;;;5109395;28;20211;-65
2022/10/13 06:37:53;;;;;;;22.53;10.00;;;10.90;99.90;;;;;;5102589;28;20208;-66
2022/10/13 06:40:20;;;;;;;19.40;9.93;;;10.90;99.90;;;;;;5107155;28;20212;-65
2022/10/13 06:42:50;;;;;;;17.77;9.73;;;11.00;99.90;;;;;;5108356;28;20645;-65
2022/10/13 06:45:18;;;;;;;20.13;9.63;;;11.10;99.90;;;;;;5106484;28;20295;-65
2022/10/13 06:47:44;;;;;;;28.43;10.83;;;11.20;99.90;;;;;;5101270;28;20206;-66
2022/10/13 06:50:11;;;;;;;19.73;9.73;;;11.40;99.90;;;;;;5106779;28;20778;-67
2022/10/13 06:52:39;;;;;;;25.23;10.30;;;11.70;99.90;;;;;;5107666;28;20207;-66
2022/10/13 06:55:07;;;;;;;24.97;10.20;;;12.10;99.90;;;;;;5104257;28;20301;-65
2022/10/13 06:57:33;;;;;;;24.17;10.23;;;12.40;99.90;;;;;;5101277;28;20215;-65
2022/10/13 07:00:00;;;;;;;24.47;9.27;;;12.60;99.90;;;;;;5107019;28;20202;-65
2022/10/13 07:02:27;;;;;;;14.17;9.33;;;12.70;99.90;;;;;;5105974;28;20200;-67
2022/10/13 07:04:53;;;;;;;16.43;8.00;;;12.80;99.90;;;;;;5102316;28;20200;-67
2022/10/13 07:07:20;;;;;;;16.37;8.37;;;12.90;99.90;;;;;;5106992;28;20227;-66
2022/10/13 07:09:48;;;;;;;21.67;8.20;;;13.00;99.90;;;;;;5108082;28;20203;-67
2022/10/13 07:12:15;;;;;;;13.27;7.60;;;13.10;99.90;;;;;;5103752;28;20748;-67
2022/10/13 07:14:42;;;;;;;15.10;8.77;;;13.20;99.90;;;;;;5108761;28;20224;-67
2022/10/13 07:17:09;;;;;;;14.17;9.03;;;13.20;99.90;;;;;;5109424;28;20208;-67
2022/10/13 07:19:36;;;;;;;13.60;7.77;;;13.30;99.90;;;;;;5111147;28;20200;-66
2022/10/13 07:22:02;;;;;;;13.93;8.27;;;13.40;99.90;;;;;;5113683;28;20219;-67
2022/10/13 07:24:29;;;;;;;16.67;8.03;;;13.50;99.90;;;;;;5113085;28;20196;-66
2022/10/13 07:26:57;;;;;;;18.57;8.20;;;13.60;99.90;;;;;;5112650;28;20247;-67
2022/10/13 07:29:24;;;;;;;18.13;8.27;;;13.70;99.90;;;;;;5113539;28;20200;-66
2022/10/13 07:31:51;;;;;;;15.60;8.03;;;13.90;99.90;;;;;;5113880;28;20210;-66
2022/10/13 07:34:18;;;;;;;15.23;8.53;;;14.00;99.90;;;;;;5113287;28;20648;-68
2022/10/13 07:36:44;;;;;;;13.50;7.93;;;14.10;99.90;;;;;;5112712;28;20215;-67
2022/10/13 07:39:12;;;;;;;14.33;7.63;;;14.20;99.90;;;;;;5109286;28;20208;-67
2022/10/13 07:41:38;;;;;;;13.83;7.80;;;14.20;99.90;;;;;;5108097;28;20299;-67
2022/10/13 07:44:07;;;;;;;14.17;7.93;;;14.30;99.90;;;;;;5112596;28;20870;-67
2022/10/13 07:46:33;;;;;;;13.93;7.17;;;14.40;99.90;;;;;;5113392;28;20539;-67
2022/10/13 07:49:00;;;;;;;13.90;7.03;;;14.50;99.90;;;;;;5113133;28;20214;-66
2022/10/13 07:51:27;;;;;;;12.73;6.50;;;14.60;99.90;;;;;;5113033;28;20568;-67
2022/10/13 07:53:54;;;;;;;12.50;7.07;;;14.70;99.90;;;;;;5113412;28;20680;-66
2022/10/13 07:56:20;;;;;;;16.10;7.20;;;14.80;99.90;;;;;;5112966;28;20208;-66
2022/10/13 07:58:47;;;;;;;13.63;7.47;;;15.00;99.90;;;;;;5111865;28;20211;-67
2022/10/13 08:01:16;;;;;;;15.37;7.30;;;15.10;99.90;;;;;;5113045;28;20215;-66
2022/10/13 08:03:44;;;;;;;14.00;7.80;;;15.20;99.90;;;;;;5113116;28;20313;-67
2022/10/13 08:06:11;;;;;;;17.40;8.77;;;15.30;99.90;;;;;;5111931;28;20214;-66
2022/10/13 08:08:39;;;;;;;23.57;9.17;;;15.40;99.20;;;;;;5112908;28;20626;-66
2022/10/13 08:11:07;;;;;;;11.80;7.83;;;15.40;98.80;;;;;;5112606;28;20216;-66
2022/10/13 08:13:35;;;;;;;12.27;7.60;;;15.50;98.40;;;;;;5111061;28;20233;-65
2022/10/13 08:16:02;;;;;;;14.73;8.43;;;15.50;98.20;;;;;;5112351;28;20226;-67
2022/10/13 08:18:31;;;;;;;14.37;7.57;;;15.50;98.00;;;;;;5112843;28;20669;-68
2022/10/13 08:21:01;;;;;;;12.90;7.63;;;15.60;97.50;;;;;;5111024;28;20204;-66
2022/10/13 08:23:28;;;;;;;11.60;7.10;;;15.70;97.30;;;;;;5110334;28;20476;-66
2022/10/13 08:25:55;;;;;;;13.53;7.90;;;15.80;97.00;;;;;;5109298;28;20707;-66
2022/10/13 08:28:24;;;;;;;15.57;7.70;;;15.80;96.80;;;;;;5111100;28;20207;-67
2022/10/13 08:30:52;;;;;;;11.17;7.53;;;16.00;96.40;;;;;;5107498;28;20204;-68
2022/10/13 08:33:20;;;;;;;12.93;7.47;;;16.10;95.80;;;;;;5111940;28;20212;-69
2022/10/13 08:35:48;;;;;;;12.77;6.60;;;16.20;95.00;;;;;;5105282;28;20703;-67
2022/10/13 08:38:15;;;;;;;14.27;7.90;;;16.40;95.00;;;;;;5110175;28;20502;-69
2022/10/13 08:40:46;;;;;;;10.77;6.03;;;16.50;94.40;;;;;;5109329;28;20577;-67
2022/10/13 08:43:16;;;;;;;10.90;6.63;;;16.70;93.10;;;;;;5111746;28;20657;-67
2022/10/13 08:45:44;;;;;;;11.25;6.30;;;16.70;93.10;;;;;;5112470;27;20192;-68
2022/10/13 08:48:15;;;;;;;12.65;6.32;;;16.90;93.30;;;;;;5104419;28;20219;-68
2022/10/13 08:50:44;;;;;;;12.98;7.28;;;17.20;93.10;;;;;;5111437;28;20200;-67
2022/10/13 08:53:18;;;;;;;11.18;7.00;;;18.00;95.90;;;;;;5106601;28;20200;-67
2022/10/13 08:55:49;;;;;;;10.65;5.97;;;20.30;92.50;;;;;;5104797;28;20588;-68
2022/10/13 08:58:22;;;;;;;12.27;6.30;;;23.60;75.40;;;;;;5106148;28;20196;-70
2022/10/13 09:00:57;;;;;;;13.27;6.90;;;26.60;59.40;;;;;;5112125;28;20215;-68
2022/10/13 09:03:26;;;;;;;11.07;6.30;;;29.20;50.30;;;;;;5111331;28;20295;-68
2022/10/13 09:06:02;;;;;;;13.35;6.45;;;31.60;44.30;;;;;;5104552;28;20196;-67
2022/10/13 09:08:39;;;;;;;9.10;6.57;;;33.60;39.30;;;;;;5107342;28;20669;-67
2022/10/13 09:11:08;;;;;;;11.18;6.30;;;35.10;35.60;;;;;;5111134;28;20235;-69
2022/10/13 09:13:35;;;;;;;11.38;6.35;;;35.90;33.90;;;;;;5102974;28;20207;-67
2022/10/13 09:16:02;;;;;;;8.88;6.45;;;36.50;33.10;;;;;;5108314;28;20224;-67
2022/10/13 09:18:30;;;;;;;8.80;5.75;;;37.30;31.90;;;;;;5111221;28;20238;-67
2022/10/13 09:21:11;;;;;;;10.20;7.35;;;37.80;31.10;;;;;;5110981;28;20204;-70
2022/10/13 09:23:39;;;;;;;11.50;6.53;;;38.30;30.10;;;;;;5104806;28;20547;-67
2022/10/13 09:26:08;;;;;;;8.77;6.18;;;38.50;29.60;;;;;;5104409;28;20234;-67
2022/10/13 09:28:36;;;;;;;9.02;6.70;;;38.90;29.40;;;;;;5108029;28;20204;-67
2022/10/13 09:31:05;;;;;;;8.98;6.28;;;39.60;28.80;;;;;;5103063;28;20192;-67
2022/10/13 09:33:37;;;;;;;8.05;5.75;;;40.30;27.90;;;;;;5105681;28;20208;-66
2022/10/13 09:36:12;;;;;;;9.32;5.97;;;40.40;27.70;;;;;;5109342;28;20238;-67
2022/10/13 09:38:45;;;;;;;8.68;6.50;;;40.10;27.30;;;;;;5108662;28;20678;-67
2022/10/13 09:41:19;;;;;;;9.55;6.50;;;40.30;27.30;;;;;;5103257;28;20212;-67
2022/10/13 09:44:00;;;;;;;14.68;6.68;;;40.00;27.30;;;;;;5100038;28;20652;-66
2022/10/13 09:46:30;;;;;;;9.73;6.07;;;40.70;27.20;;;;;;5106279;28;20287;-68
2022/10/13 09:49:00;;;;;;;9.32;5.93;;;41.80;26.80;;;;;;5109239;28;20661;-66
2022/10/13 09:51:35;;;;;;;9.43;5.40;;;42.40;26.10;;;;;;5099870;28;20204;-67
2022/10/13 09:54:03;;;;;;;11.82;6.32;;;42.50;25.80;;;;;;5110864;28;20214;-67
2022/10/13 09:56:36;;;;;;;6.13;5.38;;;43.00;25.60;;;;;;5109862;28;20573;-67
2022/10/13 09:59:12;;;;;;;8.23;5.28;;;43.50;25.00;;;;;;5111007;28;20594;-67
2022/10/13 10:01:44;;;;;;;6.70;5.10;;;43.50;25.00;;;;;;5108393;28;20206;-67
2022/10/13 10:04:15;;;;;;;6.30;5.20;;;44.10;24.80;;;;;;5107528;27;20196;-68
2022/10/13 10:06:42;;;;;;;6.13;4.60;;;44.20;24.30;;;;;;5106212;28;20203;-67
2022/10/13 10:09:26;;;;;;;9.48;4.57;;;43.60;24.50;;;;;;5106611;28;20208;-67
2022/10/13 10:11:57;;;;;;;7.20;5.25;;;43.60;24.50;;;;;;5110141;28;20206;-69
2022/10/13 10:14:27;;;;;;;7.97;5.03;;;43.60;24.50;;;;;;5108435;28;20195;-68
2022/10/13 10:17:01;;;;;;;7.72;4.45;;;43.90;24.30;;;;;;5108882;28;20559;-69
2022/10/13 10:19:39;;;;;;;6.38;4.32;;;43.70;24.00;;;;;;5109380;28;20195;-67
2022/10/13 10:22:15;;;;;;;5.38;3.50;;;43.80;23.90;;;;;;5105098;28;20229;-67
2022/10/13 10:24:51;;;;;;;8.15;4.00;;;43.40;23.80;;;;;;5106605;28;20199;-67
2022/10/13 10:27:24;;;;;;;5.18;3.13;;;43.40;24.10;;;;;;5104575;28;20573;-67
2022/10/13 10:29:57;;;;;;;7.72;3.50;;;43.60;23.90;;;;;;5109563;28;20652;-67
2022/10/13 10:32:42;;;;;;;7.13;3.42;;;43.20;23.60;;;;;;5103885;28;20226;-66
2022/10/13 10:35:13;;;;;;;5.95;3.40;;;42.40;24.10;;;;;;5107714;28;20292;-67
2022/10/13 10:37:53;;;;;;;5.65;3.33;;;42.20;24.30;;;;;;5104839;28;20959;-67
2022/10/13 10:40:32;;;;;;;5.63;3.05;;;42.90;24.00;;;;;;5105734;28;20206;-67
2022/10/13 10:43:30;;;;;;;6.70;3.63;;;44.00;23.50;;;;;;5107589;28;20546;-66
2022/10/13 10:45:59;;;;;;;6.05;3.08;;;44.30;23.40;;;;;;5109721;28;20199;-67
2022/10/13 10:48:30;;;;;;;4.97;2.85;;;43.90;23.20;;;;;;5097880;28;20208;-68
2022/10/13 10:50:57;;;;;;;5.72;3.20;;;44.30;23.00;;;;;;5109196;28;20202;-67
2022/10/13 10:53:33;;;;;;;5.68;3.13;;;44.70;22.90;;;;;;5106124;28;20653;-68
2022/10/13 10:56:09;;;;;;;4.97;2.50;;;45.20;22.40;;;;;;5103202;28;20623;-67
2022/10/13 10:58:44;;;;;;;3.97;2.58;;;45.30;22.30;;;;;;5106518;28;20202;-68
2022/10/13 11:01:25;;;;;;;6.93;3.30;;;45.10;22.30;;;;;;5110296;28;20198;-67
2022/10/13 11:03:58;;;;;;;6.47;2.83;;;45.10;22.20;;;;;;5106316;28;20207;-68
2022/10/13 11:06:33;;;;;;;5.65;2.70;;;45.60;22.20;;;;;;5099275;28;20203;-67
2022/10/13 11:09:00;;;;;;;4.15;3.00;;;46.00;22.00;;;;;;5106990;28;20637;-68
2022/10/13 11:11:36;;;;;;;6.00;3.00;;;46.20;21.90;;;;;;5105291;28;20207;-68
2022/10/13 11:14:29;;;;;;;11.25;2.78;;;46.30;21.70;;;;;;5099033;28;20199;-67
2022/10/13 11:17:10;;;;;;;3.75;2.20;;;45.90;21.70;;;;;;5106344;28;20202;-68
2022/10/13 11:19:38;;;;;;;5.30;2.70;;;45.40;21.70;;;;;;5109746;28;20216;-67
2022/10/13 11:22:24;;;;;;;4.63;2.47;;;45.20;21.80;;;;;;5109729;28;20699;-67
2022/10/13 11:24:57;;;;;;;4.22;2.42;;;45.00;22.00;;;;;;5105076;28;20203;-70
2022/10/13 11:27:43;;;;;;;4.93;2.65;;;44.80;21.90;;;;;;5108952;28;20701;-67
2022/10/13 11:30:40;;;;;;;2.90;2.08;;;44.30;22.30;;;;;;5107049;28;20207;-67
2022/10/13 11:33:32;;;;;;;6.00;2.75;;;43.80;22.50;;;;;;5100317;28;20235;-68
2022/10/13 11:36:31;;;;;;;5.03;2.88;;;43.50;22.40;;;;;;5109220;28;20592;-67
2022/10/13 11:39:08;;;;;;;4.65;2.65;;;43.10;22.90;;;;;;5109482;28;20199;-68
2022/10/13 11:41:43;;;;;;;7.35;2.60;;;43.30;22.80;;;;;;5093778;28;20202;-67
2022/10/13 11:44:19;;;;;;;6.72;3.13;;;43.60;22.70;;;;;;5102868;28;20617;-67
2022/10/13 11:47:02;;;;;;;3.80;2.63;;;43.40;22.70;;;;;;5108165;28;20195;-67
2022/10/13 11:49:45;;;;;;;4.32;3.03;;;43.20;22.90;;;;;;5107180;28;20560;-68
2022/10/13 11:52:44;;;;;;;6.53;3.47;;;43.20;22.80;;;;;;5100292;28;20386;-67
2022/10/13 11:55:13;;;;;;;6.10;2.72;;;42.90;22.90;;;;;;5102564;28;20238;-68
2022/10/13 11:57:40;;;;;;;8.32;2.88;;;42.90;23.00;;;;;;5105752;28;20199;-67
2022/10/13 12:00:14;;;;;;;5.28;2.90;;;43.00;23.00;;;;;;5107549;28;20563;-68
2022/10/13 12:02:49;;;;;;;4.88;3.08;;;43.40;22.90;;;;;;5103084;28;20215;-68
2022/10/13 12:05:21;;;;;;;6.35;2.88;;;44.20;22.60;;;;;;5106423;28;20623;-67
2022/10/13 12:07:51;;;;;;;5.40;2.85;;;44.30;22.40;;;;;;5103222;28;20214;-67
2022/10/13 12:10:23;;;;;;;3.70;2.70;;;43.90;22.40;;;;;;5108395;28;20199;-68
2022/10/13 12:12:50;;;;;;;5.93;2.90;;;43.70;22.70;;;;;;5111509;28;20210;-67
2022/10/13 12:15:40;;;;;;;6.45;2.83;;;43.80;22.70;;;;;;5109968;28;20591;-67
2022/10/13 12:18:22;;;;;;;5.32;2.83;;;43.60;22.70;;;;;;5099450;28;20214;-67
2022/10/13 12:20:53;;;;;;;7.78;2.80;;;43.40;23.00;;;;;;5111976;28;20219;-67
2022/10/13 12:23:20;;;;;;;6.63;3.15;;;43.60;22.50;;;;;;5104574;28;20227;-68
2022/10/13 12:25:55;;;;;;;4.88;3.15;;;43.90;22.40;;;;;;5109742;28;20230;-67
2022/10/13 12:28:22;;;;;;;6.20;2.63;;;44.00;22.50;;;;;;5111774;28;20587;-67
2022/10/13 12:30:53;;;;;;;6.18;2.42;;;44.00;22.40;;;;;;5105374;28;20200;-67
2022/10/13 12:33:27;;;;;;;3.67;2.17;;;44.30;22.30;;;;;;5109072;28;20226;-67
2022/10/13 12:35:54;;;;;;;4.15;2.28;;;44.40;22.20;;;;;;5107879;28;20658;-67
2022/10/13 12:38:22;;;;;;;4.80;2.55;;;44.50;22.20;;;;;;5113415;28;20203;-68
2022/10/13 12:40:49;;;;;;;5.95;2.50;;;44.20;22.30;;;;;;5112946;28;20207;-67
2022/10/13 12:43:19;;;;;;;7.07;3.00;;;43.60;22.40;;;;;;5110343;28;20215;-67
2022/10/13 12:45:46;;;;;;;6.32;2.30;;;42.00;22.40;;;;;;5113382;28;20211;-67
2022/10/13 12:48:39;;;;;;;5.28;2.40;;;39.70;23.40;;;;;;5112234;28;20203;-67
2022/10/13 12:51:18;;;;;;;5.03;2.72;;;36.80;25.00;;;;;;5082490;28;20273;-66
2022/10/13 12:53:46;;;;;;;10.20;2.70;;;34.20;26.60;;;;;;5112124;28;20592;-67
2022/10/13 12:56:26;;;;;;;7.55;2.60;;;31.90;28.30;;;;;;5111230;28;20236;-67